CheckWX is a tool to help pilots better visualize weather data.  It is not intended as a substitute for an official pre-flight weather briefing.

16:30:59 UTC

SBLO TAF
Governador José Richa Airport
Londrina, Brazil
TAF SBLO 200900Z 2012/2024 11007KT CAVOK TN23/2012Z TX32/2018Z RMK PDW

Oct-20@
12:00 UTC

Oct-20 @ 12:00 UTC

Oct-21@
00:00 UTC

Oct-21 @ 00:00 UTC

TAF SBLO 200900Z 2012/2024 11007KT CAVOK TN23/2012Z TX32/2018Z RMK PDW
Wind
  • 110° at 7 KTS
Cloud Levels
  • No significant clouds